Terminal Aerodrome Forecast
Issued by NWS Cleveland, OH

Home | Current Version | Previous Version | Text Only | Print | Product List | Glossary Off
Versions: 1 2 3 4 5 6 7 8 9 10 11 12 13 14 15 16 17

000
FTUS41 KCLE 261200 AAA
TAFTOL
TAF AMD
KTOL 261236Z 2613/2712 06012KT 2SM -SN OVC035
     FM261400 05012KT 1 1/2SM -SN OVC025
     FM261800 02010KT 6SM -SN OVC015
     FM262100 36010KT P6SM OVC035=

USA.gov is the U.S. government's official web portal to all federal, state and local government web resources and services.